sensor_id;sensor_type;location;lat;lon;timestamp;P1;durP1;ratioP1;P2;durP2;ratioP2
12288;SDS011;6207;49.308;7.336;2022-09-01T00:02:29;12.37;;;11.20;;
12288;SDS011;6207;49.308;7.336;2022-09-01T00:04:56;12.03;;;10.83;;
12288;SDS011;6207;49.308;7.336;2022-09-01T00:07:24;12.17;;;11.07;;
12288;SDS011;6207;49.308;7.336;2022-09-01T00:09:55;12.40;;;11.40;;
12288;SDS011;6207;49.308;7.336;2022-09-01T00:12:21;12.70;;;11.50;;
12288;SDS011;6207;49.308;7.336;2022-09-01T00:14:51;12.90;;;11.70;;
12288;SDS011;6207;49.308;7.336;2022-09-01T00:17:18;12.20;;;11.17;;
12288;SDS011;6207;49.308;7.336;2022-09-01T00:19:45;12.43;;;11.20;;
12288;SDS011;6207;49.308;7.336;2022-09-01T00:22:12;11.70;;;10.70;;
12288;SDS011;6207;49.308;7.336;2022-09-01T00:24:39;11.87;;;10.87;;
12288;SDS011;6207;49.308;7.336;2022-09-01T00:27:05;12.20;;;11.10;;
12288;SDS011;6207;49.308;7.336;2022-09-01T00:29:32;12.40;;;11.40;;
12288;SDS011;6207;49.308;7.336;2022-09-01T00:31:59;11.90;;;10.90;;
12288;SDS011;6207;49.308;7.336;2022-09-01T00:34:26;12.30;;;11.20;;
12288;SDS011;6207;49.308;7.336;2022-09-01T00:36:53;11.83;;;10.73;;
12288;SDS011;6207;49.308;7.336;2022-09-01T00:39:19;12.40;;;11.20;;
12288;SDS011;6207;49.308;7.336;2022-09-01T00:41:46;14.13;;;12.47;;
12288;SDS011;6207;49.308;7.336;2022-09-01T00:44:16;13.17;;;12.07;;
12288;SDS011;6207;49.308;7.336;2022-09-01T00:46:50;11.53;;;10.60;;
12288;SDS011;6207;49.308;7.336;2022-09-01T00:49:34;11.87;;;10.83;;
12288;SDS011;6207;49.308;7.336;2022-09-01T00:52:13;12.50;;;11.30;;
12288;SDS011;6207;49.308;7.336;2022-09-01T00:54:45;12.57;;;11.33;;
12288;SDS011;6207;49.308;7.336;2022-09-01T00:57:15;12.53;;;11.33;;
12288;SDS011;6207;49.308;7.336;2022-09-01T00:59:45;12.83;;;11.40;;
12288;SDS011;6207;49.308;7.336;2022-09-01T01:02:37;11.37;;;10.40;;
12288;SDS011;6207;49.308;7.336;2022-09-01T01:05:06;12.30;;;11.10;;
12288;SDS011;6207;49.308;7.336;2022-09-01T01:07:39;12.63;;;11.43;;
12288;SDS011;6207;49.308;7.336;2022-09-01T01:10:13;13.00;;;11.90;;
12288;SDS011;6207;49.308;7.336;2022-09-01T01:12:41;13.47;;;12.27;;
12288;SDS011;6207;49.308;7.336;2022-09-01T01:15:10;13.80;;;12.50;;
12288;SDS011;6207;49.308;7.336;2022-09-01T01:17:38;12.83;;;11.73;;
12288;SDS011;6207;49.308;7.336;2022-09-01T01:20:06;13.40;;;12.10;;
12288;SDS011;6207;49.308;7.336;2022-09-01T01:23:01;13.83;;;12.63;;
12288;SDS011;6207;49.308;7.336;2022-09-01T01:30:40;13.00;;;11.87;;
12288;SDS011;6207;49.308;7.336;2022-09-01T01:33:19;13.67;;;12.20;;
12288;SDS011;6207;49.308;7.336;2022-09-01T01:35:49;12.57;;;11.37;;
12288;SDS011;6207;49.308;7.336;2022-09-01T01:38:18;13.50;;;12.20;;
12288;SDS011;6207;49.308;7.336;2022-09-01T01:40:48;13.03;;;11.83;;
12288;SDS011;6207;49.308;7.336;2022-09-01T01:43:16;14.17;;;12.77;;
12288;SDS011;6207;49.308;7.336;2022-09-01T01:45:47;14.53;;;13.03;;
12288;SDS011;6207;49.308;7.336;2022-09-01T01:48:20;12.93;;;11.63;;
12288;SDS011;6207;49.308;7.336;2022-09-01T01:50:50;13.30;;;12.00;;
12288;SDS011;6207;49.308;7.336;2022-09-01T01:53:18;13.10;;;11.83;;
12288;SDS011;6207;49.308;7.336;2022-09-01T01:55:46;12.83;;;11.63;;
12288;SDS011;6207;49.308;7.336;2022-09-01T01:58:18;13.30;;;12.07;;
12288;SDS011;6207;49.308;7.336;2022-09-01T02:00:47;13.90;;;12.60;;
12288;SDS011;6207;49.308;7.336;2022-09-01T02:03:30;14.07;;;12.70;;
12288;SDS011;6207;49.308;7.336;2022-09-01T02:06:04;13.47;;;12.23;;
12288;SDS011;6207;49.308;7.336;2022-09-01T02:08:33;14.00;;;12.57;;
12288;SDS011;6207;49.308;7.336;2022-09-01T02:11:03;14.03;;;12.70;;
12288;SDS011;6207;49.308;7.336;2022-09-01T02:13:31;12.50;;;11.40;;
12288;SDS011;6207;49.308;7.336;2022-09-01T02:15:59;12.03;;;10.93;;
12288;SDS011;6207;49.308;7.336;2022-09-01T02:18:35;11.40;;;10.33;;
12288;SDS011;6207;49.308;7.336;2022-09-01T02:21:04;12.40;;;11.20;;
12288;SDS011;6207;49.308;7.336;2022-09-01T02:23:41;15.87;;;14.27;;
12288;SDS011;6207;49.308;7.336;2022-09-01T02:26:09;13.67;;;12.33;;
12288;SDS011;6207;49.308;7.336;2022-09-01T02:28:43;12.10;;;11.10;;
12288;SDS011;6207;49.308;7.336;2022-09-01T02:31:20;11.23;;;10.27;;
12288;SDS011;6207;49.308;7.336;2022-09-01T02:33:48;11.17;;;9.97;;
12288;SDS011;6207;49.308;7.336;2022-09-01T02:36:16;11.37;;;10.33;;
12288;SDS011;6207;49.308;7.336;2022-09-01T02:38:45;11.10;;;10.03;;
12288;SDS011;6207;49.308;7.336;2022-09-01T02:41:19;12.07;;;11.07;;
12288;SDS011;6207;49.308;7.336;2022-09-01T02:43:48;12.50;;;11.30;;
12288;SDS011;6207;49.308;7.336;2022-09-01T02:46:16;13.17;;;11.87;;
12288;SDS011;6207;49.308;7.336;2022-09-01T02:48:43;12.17;;;10.97;;
12288;SDS011;6207;49.308;7.336;2022-09-01T02:51:12;12.43;;;11.33;;
12288;SDS011;6207;49.308;7.336;2022-09-01T02:53:42;13.03;;;11.63;;
12288;SDS011;6207;49.308;7.336;2022-09-01T02:56:14;11.67;;;10.67;;
12288;SDS011;6207;49.308;7.336;2022-09-01T02:58:45;12.00;;;10.83;;
12288;SDS011;6207;49.308;7.336;2022-09-01T03:03:44;12.10;;;11.00;;
12288;SDS011;6207;49.308;7.336;2022-09-01T03:06:12;10.90;;;10.00;;
12288;SDS011;6207;49.308;7.336;2022-09-01T03:08:40;11.67;;;10.67;;
12288;SDS011;6207;49.308;7.336;2022-09-01T03:11:06;11.93;;;10.93;;
12288;SDS011;6207;49.308;7.336;2022-09-01T03:13:38;11.70;;;10.60;;
12288;SDS011;6207;49.308;7.336;2022-09-01T03:16:06;12.10;;;10.80;;
12288;SDS011;6207;49.308;7.336;2022-09-01T03:18:34;13.13;;;12.03;;
12288;SDS011;6207;49.308;7.336;2022-09-01T03:21:02;11.37;;;10.37;;
12288;SDS011;6207;49.308;7.336;2022-09-01T03:23:30;11.80;;;10.77;;
12288;SDS011;6207;49.308;7.336;2022-09-01T03:25:59;11.70;;;10.50;;
12288;SDS011;6207;49.308;7.336;2022-09-01T03:28:27;11.67;;;10.63;;
12288;SDS011;6207;49.308;7.336;2022-09-01T03:30:55;10.97;;;10.07;;
12288;SDS011;6207;49.308;7.336;2022-09-01T03:33:23;11.73;;;10.63;;
12288;SDS011;6207;49.308;7.336;2022-09-01T03:35:54;11.83;;;10.73;;
12288;SDS011;6207;49.308;7.336;2022-09-01T03:38:22;11.80;;;10.70;;
12288;SDS011;6207;49.308;7.336;2022-09-01T03:40:50;13.13;;;11.33;;
12288;SDS011;6207;49.308;7.336;2022-09-01T03:43:19;11.40;;;10.40;;
12288;SDS011;6207;49.308;7.336;2022-09-01T03:45:59;11.23;;;10.23;;
12288;SDS011;6207;49.308;7.336;2022-09-01T03:48:27;11.70;;;10.70;;
12288;SDS011;6207;49.308;7.336;2022-09-01T03:50:56;11.93;;;10.80;;
12288;SDS011;6207;49.308;7.336;2022-09-01T03:53:29;12.53;;;11.33;;
12288;SDS011;6207;49.308;7.336;2022-09-01T03:55:59;12.70;;;11.47;;
12288;SDS011;6207;49.308;7.336;2022-09-01T03:58:26;13.10;;;11.80;;
12288;SDS011;6207;49.308;7.336;2022-09-01T04:00:54;12.27;;;11.13;;
12288;SDS011;6207;49.308;7.336;2022-09-01T04:03:24;12.93;;;11.83;;
12288;SDS011;6207;49.308;7.336;2022-09-01T04:05:54;13.20;;;11.90;;
12288;SDS011;6207;49.308;7.336;2022-09-01T04:08:22;12.57;;;11.37;;
12288;SDS011;6207;49.308;7.336;2022-09-01T04:11:03;12.27;;;11.17;;
12288;SDS011;6207;49.308;7.336;2022-09-01T04:13:36;13.23;;;11.97;;
12288;SDS011;6207;49.308;7.336;2022-09-01T04:16:06;13.17;;;11.77;;
12288;SDS011;6207;49.308;7.336;2022-09-01T04:19:02;13.17;;;11.97;;
12288;SDS011;6207;49.308;7.336;2022-09-01T04:21:42;13.13;;;11.73;;
12288;SDS011;6207;49.308;7.336;2022-09-01T04:24:09;13.33;;;12.03;;
12288;SDS011;6207;49.308;7.336;2022-09-01T04:26:38;11.83;;;10.63;;
12288;SDS011;6207;49.308;7.336;2022-09-01T04:29:06;11.60;;;10.60;;
12288;SDS011;6207;49.308;7.336;2022-09-01T04:31:34;11.40;;;10.30;;
12288;SDS011;6207;49.308;7.336;2022-09-01T04:34:03;11.40;;;10.40;;
12288;SDS011;6207;49.308;7.336;2022-09-01T04:36:39;12.27;;;11.23;;
12288;SDS011;6207;49.308;7.336;2022-09-01T04:39:07;12.57;;;11.37;;
12288;SDS011;6207;49.308;7.336;2022-09-01T04:41:39;12.80;;;11.60;;
12288;SDS011;6207;49.308;7.336;2022-09-01T04:44:07;12.77;;;11.50;;
12288;SDS011;6207;49.308;7.336;2022-09-01T04:46:36;12.40;;;11.30;;
12288;SDS011;6207;49.308;7.336;2022-09-01T04:49:07;13.00;;;11.63;;
12288;SDS011;6207;49.308;7.336;2022-09-01T04:51:42;12.33;;;11.13;;
12288;SDS011;6207;49.308;7.336;2022-09-01T04:54:18;12.50;;;11.40;;
12288;SDS011;6207;49.308;7.336;2022-09-01T04:56:47;14.33;;;12.80;;
12288;SDS011;6207;49.308;7.336;2022-09-01T04:59:19;12.70;;;11.40;;
12288;SDS011;6207;49.308;7.336;2022-09-01T05:01:48;13.20;;;12.00;;
12288;SDS011;6207;49.308;7.336;2022-09-01T05:04:17;14.47;;;13.07;;
12288;SDS011;6207;49.308;7.336;2022-09-01T05:06:50;13.23;;;11.93;;
12288;SDS011;6207;49.308;7.336;2022-09-01T05:09:21;13.80;;;12.50;;
12288;SDS011;6207;49.308;7.336;2022-09-01T09:43:35;10.82;;;10.23;;
12288;SDS011;6207;49.308;7.336;2022-09-01T09:46:20;10.93;;;10.25;;
12288;SDS011;6207;49.308;7.336;2022-09-01T09:51:37;10.90;;;10.20;;
12288;SDS011;6207;49.308;7.336;2022-09-01T09:54:14;10.55;;;9.95;;
12288;SDS011;6207;49.308;7.336;2022-09-01T10:02:36;12.23;;;11.38;;
12288;SDS011;6207;49.308;7.336;2022-09-01T10:11:03;10.45;;;9.63;;
12288;SDS011;6207;49.308;7.336;2022-09-01T10:13:33;11.32;;;10.63;;
12288;SDS011;6207;49.308;7.336;2022-09-01T10:16:03;10.50;;;9.88;;
12288;SDS011;6207;49.308;7.336;2022-09-01T10:18:43;10.50;;;9.82;;
12288;SDS011;6207;49.308;7.336;2022-09-01T10:21:36;11.18;;;10.40;;
12288;SDS011;6207;49.308;7.336;2022-09-01T10:24:28;11.38;;;10.57;;
12288;SDS011;6207;49.308;7.336;2022-09-01T10:27:24;10.50;;;9.80;;
12288;SDS011;6207;49.308;7.336;2022-09-01T10:32:46;9.93;;;9.40;;
12288;SDS011;6207;49.308;7.336;2022-09-01T10:35:44;10.30;;;9.60;;
12288;SDS011;6207;49.308;7.336;2022-09-01T10:38:19;10.00;;;9.50;;
12288;SDS011;6207;49.308;7.336;2022-09-01T10:44:30;10.77;;;10.00;;
12288;SDS011;6207;49.308;7.336;2022-09-01T10:47:22;10.20;;;9.60;;
12288;SDS011;6207;49.308;7.336;2022-09-01T10:49:56;9.93;;;9.25;;
12288;SDS011;6207;49.308;7.336;2022-09-01T10:58:20;10.75;;;10.10;;
12288;SDS011;6207;49.308;7.336;2022-09-01T11:04:18;10.60;;;9.90;;
12288;SDS011;6207;49.308;7.336;2022-09-01T11:09:38;9.20;;;8.70;;
12288;SDS011;6207;49.308;7.336;2022-09-01T11:17:31;9.82;;;9.23;;
12288;SDS011;6207;49.308;7.336;2022-09-01T11:20:23;10.10;;;9.52;;
12288;SDS011;6207;49.308;7.336;2022-09-01T11:25:50;9.05;;;8.55;;
12288;SDS011;6207;49.308;7.336;2022-09-01T11:28:39;9.20;;;8.60;;
12288;SDS011;6207;49.308;7.336;2022-09-01T11:31:22;10.05;;;9.43;;
12288;SDS011;6207;49.308;7.336;2022-09-01T11:36:31;10.20;;;9.60;;
12288;SDS011;6207;49.308;7.336;2022-09-01T11:48:09;9.07;;;8.57;;
12288;SDS011;6207;49.308;7.336;2022-09-01T11:50:39;9.65;;;8.88;;
12288;SDS011;6207;49.308;7.336;2022-09-01T11:53:12;9.25;;;8.65;;
12288;SDS011;6207;49.308;7.336;2022-09-01T11:55:46;10.00;;;9.40;;
12288;SDS011;6207;49.308;7.336;2022-09-01T12:01:19;9.32;;;8.63;;
12288;SDS011;6207;49.308;7.336;2022-09-01T12:03:56;9.60;;;9.00;;
12288;SDS011;6207;49.308;7.336;2022-09-01T12:06:25;9.95;;;9.30;;
12288;SDS011;6207;49.308;7.336;2022-09-01T12:08:56;9.55;;;8.95;;
12288;SDS011;6207;49.308;7.336;2022-09-01T12:11:26;10.15;;;9.48;;
12288;SDS011;6207;49.308;7.336;2022-09-01T12:16:37;11.32;;;10.63;;
12288;SDS011;6207;49.308;7.336;2022-09-01T12:19:07;10.50;;;9.90;;
12288;SDS011;6207;49.308;7.336;2022-09-01T12:21:57;10.32;;;9.80;;
12288;SDS011;6207;49.308;7.336;2022-09-01T12:24:51;10.80;;;10.13;;
12288;SDS011;6207;49.308;7.336;2022-09-01T12:27:29;10.68;;;10.07;;
12288;SDS011;6207;49.308;7.336;2022-09-01T12:29:56;10.95;;;10.32;;
12288;SDS011;6207;49.308;7.336;2022-09-01T12:32:25;10.70;;;10.10;;
12288;SDS011;6207;49.308;7.336;2022-09-01T12:35:00;10.88;;;10.18;;
12288;SDS011;6207;49.308;7.336;2022-09-01T12:37:36;10.57;;;9.98;;
